Nautilus — P3QQ7 — position and weather

sailwx.info

Track history (hours):
 
Tides and Currents Weather Stations Pressure Air Temp Water Temp Dewpoint Dewpoint Depression Visibility Wind Speed Wind Dir Waves Ship Positions

Nautilus

Last reported at 2014-Oct-31 06:09 UTC. Time now 2014-Oct-31 07:00 UTC.
Position N 41°32' E 029°41'.

Length 176 m; draft 7.8 m.

Type: Tanker. MMSI: 212434000.

Date/timePositionNaut miles runAvg speedWind from/ knotsBaromVisibWave heightAir tempDewpointWater temp
2014-Oct-31 06:09N 41°32' E 029°41'711.1
2014-Oct-31 05:33N 41°28' E 029°33'1110.7
2014-Oct-31 04:34N 41°23' E 029°21'1111.0
2014-Oct-31 03:33N 41°15' E 029°10'19 9.7
2014-Oct-31 01:33N 40°58' E 028°59'10 9.9
2014-Oct-31 00:33N 40°50' E 028°52'2 0.8
2014-Oct-30 21:21N 40°49' E 028°48'2 0.2
2014-Oct-30 13:09N 40°49' E 028°51'610.3
2014-Oct-30 12:33N 40°43' E 028°54'3 3.5
2014-Oct-30 11:33N 40°40' E 028°52'2 1.3
2014-Oct-30 10:09N 40°42' E 028°51'9 1.6
2014-Oct-30 04:29N 40°51' E 028°48'271 9.4
2014-Oct-28 23:33N 37°46' E 024°32'1212.6
2014-Oct-28 22:33N 37°34' E 024°27'1312.8
2014-Oct-28 21:33N 37°24' E 024°17'1312.9
2014-Oct-28 20:33N 37°14' E 024°07'1412.9
2014-Oct-28 19:28N 37°03' E 023°56'1112.6
2014-Oct-28 18:33N 36°55' E 023°46'1912.6
2014-Oct-28 17:04N 36°39' E 023°33'  
Track history (hours):
 
Tides and Currents Weather Stations Pressure Air Temp Water Temp Dewpoint Dewpoint Depression Visibility Wind Speed Wind Dir Waves Ship Positions

Nautilus

Last reported at 2014-Oct-31 06:09 UTC. Time now 2014-Oct-31 07:00 UTC.
Position N 41°32' E 029°41'.

Length 176 m; draft 7.8 m.

Type: Tanker. MMSI: 212434000.

Date/timePositionNaut miles runAvg speedWind from/ knotsBaromVisibWave heightAir tempDewpointWater temp
2014-Oct-31 06:09N 41°32' E 029°41'711.1
2014-Oct-31 05:33N 41°28' E 029°33'1110.7
2014-Oct-31 04:34N 41°23' E 029°21'1111.0
2014-Oct-31 03:33N 41°15' E 029°10'19 9.7
2014-Oct-31 01:33N 40°58' E 028°59'10 9.9
2014-Oct-31 00:33N 40°50' E 028°52'2 0.8
2014-Oct-30 21:21N 40°49' E 028°48'2 0.2
2014-Oct-30 13:09N 40°49' E 028°51'610.3
2014-Oct-30 12:33N 40°43' E 028°54'3 3.5
2014-Oct-30 11:33N 40°40' E 028°52'2 1.3
2014-Oct-30 10:09N 40°42' E 028°51'9 1.6
2014-Oct-30 04:29N 40°51' E 028°48'271 9.4
2014-Oct-28 23:33N 37°46' E 024°32'1212.6
2014-Oct-28 22:33N 37°34' E 024°27'1312.8
2014-Oct-28 21:33N 37°24' E 024°17'1312.9
2014-Oct-28 20:33N 37°14' E 024°07'1412.9
2014-Oct-28 19:28N 37°03' E 023°56'1112.6
2014-Oct-28 18:33N 36°55' E 023°46'1912.6
2014-Oct-28 17:04N 36°39' E 023°33'  

Dump ship's entire track history